Chuuk, FM

5:08 AM EDT on May 28, 2015 (GMT -0400)
Andersen Air Force Base | | Change Station
CLOSE
Current Station
Airport
Location: Andersen AFB,
Elevation: 614 ft
Nearby Weather Stations

Elev 614 ft 13.58 °N, 144.93 °E | Updated 9 minutes ago

Mostly Cloudy
Mostly Cloudy
79 °F
Feels Like 79 °F
N
12
Wind Variable Wind from East

Today
High -- | Low -- °F
--% Chance of Precip.
Yesterday
High -- | Low -- °F
Precip. -- in
3:35 PM 4:05 AM
Waxing Gibbous, 74% visible
Pressure 29.84 in
Visibility 5.0 miles
Clouds Scattered Clouds 700 ft
Mostly Cloudy 1200 ft
Mostly Cloudy 1800 ft
Dew Point 75 °F
Humidity 89%
Rainfall 0.49 in
Snow Depth Not available.
UV 0 out of 12
Pollen Not available.
Air Quality Not available.
Flu Activity
SPECI PGUA 280859Z AUTO 10010KT 5SM BR SCT007 BKN012 BKN018 26/24 A2984 RMK AO2 DZE58 VISNO RWY24L CHINO RWY24L $

More Conditions Fewer Conditions

Pressure 29.84 in
Visibility 5.0 miles
Clouds Scattered Clouds 700 ft
Mostly Cloudy 1200 ft
Mostly Cloudy 1800 ft
Dew Point 75 °F
Humidity 89%
Rainfall 0.49 in
Snow Depth Not available.
UV 0 out of 12
Pollen Not available.
Air Quality Not available.
Flu Activity
SPECI PGUA 280859Z AUTO 10010KT 5SM BR SCT007 BKN012 BKN018 26/24 A2984 RMK AO2 DZE58 VISNO RWY24L CHINO RWY24L $

More Conditions Fewer Conditions

10-Day Weather Forecast

Almanac

Astronomy

May. 28, 2015 Rise Set
Actual Time
Civil Twilight
Nautical Twilight
Astronomical Twilight
Moon
Length of Visible Light
Length of Day
Tomorrow will be .
, % of the Moon is Illuminated

Today's Extremes

State Highs State Lows

Community

WunderPhotos

Upload Photos

1,824,935 photos uploaded!

WunderBlogs® & News

Nearby

Air Quality

  Air Quality AQ Index Pollutant
Not available.

Snow Depth

Station Depth Elevation

Earthquake Activity

City Distance Mag. Time & Date
Minimum magnitude displayed is 2.5.

Coastal Water Temperatures

Place Temperature

Stations

Nearby Weather Stations

Station Location Temp. Windchill Dew Point Humidity Wind Precip. Elev Updated Type